createdAt,value
2022-08-18T00:02:30.181Z,24.11
2022-08-18T00:05:04.244Z,24.11
2022-08-18T00:07:33.845Z,24.10
2022-08-18T00:10:07.270Z,24.11
2022-08-18T00:12:45.051Z,24.12
2022-08-18T00:15:20.265Z,24.13
2022-08-18T00:17:47.325Z,24.11
2022-08-18T00:20:15.922Z,24.13
2022-08-18T00:22:49.377Z,24.14
2022-08-18T00:25:16.863Z,24.10
2022-08-18T00:27:50.261Z,24.09
2022-08-18T00:30:20.168Z,24.08
2022-08-18T00:33:01.239Z,24.09
2022-08-18T00:35:29.916Z,24.06
2022-08-18T00:38:04.436Z,24.04
2022-08-18T00:40:37.693Z,24.07
2022-08-18T00:43:12.242Z,24.10
2022-08-18T00:45:40.589Z,24.08
2022-08-18T00:48:14.259Z,24.06
2022-08-18T00:50:50.124Z,24.04
2022-08-18T00:53:34.296Z,24.04
2022-08-18T00:56:11.540Z,24.04
2022-08-18T00:58:42.963Z,24.04
2022-08-18T01:01:18.293Z,24.01
2022-08-18T01:03:45.787Z,24.00
2022-08-18T01:06:24.248Z,23.98
2022-08-18T01:08:50.826Z,23.96
2022-08-18T01:11:24.232Z,23.92
2022-08-18T01:13:58.174Z,23.88
2022-08-18T01:16:57.173Z,23.84
2022-08-18T01:19:50.251Z,23.78
2022-08-18T01:22:40.065Z,23.69
2022-08-18T01:25:32.297Z,23.62
2022-08-18T01:28:02.327Z,23.57
2022-08-18T01:30:36.224Z,23.53
2022-08-18T01:33:02.827Z,23.50
2022-08-18T01:35:38.269Z,23.48
2022-08-18T01:38:15.256Z,23.41
2022-08-18T01:41:23.661Z,23.36
2022-08-18T01:43:37.095Z,23.29
2022-08-18T01:46:11.272Z,23.25
2022-08-18T01:48:38.569Z,23.25
2022-08-18T01:51:16.246Z,23.19
2022-08-18T01:53:49.244Z,23.18
2022-08-18T01:56:17.795Z,23.15
2022-08-18T01:58:46.143Z,23.12
2022-08-18T02:01:20.282Z,23.11
2022-08-18T02:03:49.453Z,23.10
2022-08-18T02:06:18.712Z,23.09
2022-08-18T02:09:14.246Z,23.03
2022-08-18T02:12:12.244Z,23.03
2022-08-18T02:14:39.011Z,22.95
2022-08-18T02:17:14.242Z,22.91
2022-08-18T02:19:43.153Z,22.94
2022-08-18T02:22:18.228Z,22.98
2022-08-18T02:24:45.332Z,23.03
2022-08-18T02:27:19.235Z,23.06
2022-08-18T02:29:45.859Z,22.94
2022-08-18T02:32:19.260Z,22.85
2022-08-18T02:34:45.849Z,22.75
2022-08-18T02:37:19.252Z,22.64
2022-08-18T02:39:45.928Z,22.69
2022-08-18T02:42:14.578Z,22.71
2022-08-18T02:44:47.236Z,22.65
2022-08-18T02:47:14.967Z,22.58
2022-08-18T02:49:41.779Z,22.61
2022-08-18T02:52:15.258Z,22.53
2022-08-18T02:54:41.768Z,22.58
2022-08-18T02:57:16.237Z,22.52
2022-08-18T02:59:42.845Z,22.38
2022-08-18T03:02:21.252Z,22.29
2022-08-18T03:04:54.228Z,22.28
2022-08-18T03:07:20.857Z,22.32
2022-08-18T03:09:54.228Z,22.40
2022-08-18T03:12:27.518Z,22.43
2022-08-18T03:15:00.214Z,22.34
2022-08-18T03:17:26.782Z,22.23
2022-08-18T03:20:00.229Z,22.15
2022-08-18T03:22:29.673Z,22.10
2022-08-18T03:25:05.264Z,22.02
2022-08-18T03:27:31.773Z,21.95
2022-08-18T03:30:05.237Z,21.95
2022-08-18T03:32:37.755Z,21.76
2022-08-18T03:35:11.261Z,21.60
2022-08-18T03:37:44.966Z,21.45
2022-08-18T03:40:18.344Z,21.45
2022-08-18T03:42:51.231Z,21.46
2022-08-18T03:45:24.222Z,21.43
2022-08-18T03:47:53.593Z,21.37
2022-08-18T03:50:28.226Z,21.36
2022-08-18T03:52:59.355Z,21.52
2022-08-18T03:55:36.255Z,21.36
2022-08-18T03:58:03.471Z,21.39
2022-08-18T04:00:31.232Z,21.43
2022-08-18T04:03:06.216Z,21.35
2022-08-18T04:05:34.502Z,21.27
2022-08-18T04:08:09.309Z,21.31
2022-08-18T04:10:42.378Z,21.28
2022-08-18T04:13:22.381Z,21.31
2022-08-18T04:15:55.405Z,21.45
2022-08-18T04:18:28.220Z,21.34
2022-08-18T04:21:01.223Z,21.28
2022-08-18T04:23:27.879Z,21.15
2022-08-18T04:26:04.368Z,21.20
2022-08-18T04:28:31.270Z,21.07
2022-08-18T04:31:06.201Z,21.00
2022-08-18T04:33:43.380Z,20.87
2022-08-18T04:36:20.881Z,20.91
2022-08-18T04:38:47.581Z,20.99
2022-08-18T04:41:21.291Z,20.95
2022-08-18T04:43:49.810Z,21.08
2022-08-18T04:46:24.214Z,20.96
2022-08-18T04:48:52.288Z,21.01
2022-08-18T04:52:37.604Z,21.03
2022-08-18T04:54:13.801Z,21.08
2022-08-18T04:56:47.214Z,21.12
2022-08-18T04:59:14.349Z,21.22
2022-08-18T05:01:54.234Z,21.29
2022-08-18T05:04:20.851Z,21.33
2022-08-18T05:06:54.234Z,21.32
2022-08-18T05:09:22.720Z,21.39
2022-08-18T05:12:04.201Z,21.49
2022-08-18T05:14:37.502Z,21.54
2022-08-18T05:17:11.202Z,21.62
2022-08-18T05:19:44.595Z,21.56
2022-08-18T05:22:28.353Z,21.60
2022-08-18T05:25:04.242Z,21.53
2022-08-18T05:27:39.204Z,21.63
2022-08-18T05:30:07.442Z,21.74
2022-08-18T05:32:48.680Z,21.82
2022-08-18T05:35:22.222Z,21.86
2022-08-18T05:37:58.359Z,21.87
2022-08-18T05:40:32.204Z,21.88
2022-08-18T05:42:59.959Z,21.87
2022-08-18T05:45:27.027Z,21.95
2022-08-18T05:48:05.380Z,21.97
2022-08-18T05:50:34.143Z,22.04
2022-08-18T05:53:16.295Z,22.05
2022-08-18T05:56:18.129Z,22.09
2022-08-18T05:58:55.225Z,22.22
2022-08-18T06:01:32.940Z,22.05
2022-08-18T06:04:15.185Z,22.12
2022-08-18T06:06:49.213Z,22.10
2022-08-18T06:09:38.376Z,22.05
2022-08-18T06:12:19.309Z,22.09
2022-08-18T06:14:53.188Z,22.09
2022-08-18T06:17:38.230Z,22.11
2022-08-18T06:20:20.961Z,22.13
2022-08-18T06:23:03.192Z,22.09
2022-08-18T06:26:15.229Z,22.04
2022-08-18T06:28:48.891Z,22.10
2022-08-18T06:31:36.207Z,22.19
2022-08-18T06:34:21.135Z,22.24
2022-08-18T06:37:07.279Z,22.29
2022-08-18T06:39:48.702Z,22.31
2022-08-18T06:42:24.372Z,22.38
2022-08-18T06:44:59.265Z,22.33
2022-08-18T06:47:40.960Z,22.33
2022-08-18T06:50:34.381Z,22.46
2022-08-18T06:53:04.001Z,22.46
2022-08-18T06:55:40.349Z,22.48
2022-08-18T06:58:29.182Z,22.53
2022-08-18T07:01:05.461Z,22.63
2022-08-18T07:03:42.387Z,22.73
2022-08-18T07:06:11.723Z,22.87
2022-08-18T07:08:47.173Z,22.89
2022-08-18T07:11:35.243Z,22.92
2022-08-18T07:14:28.710Z,22.96
2022-08-18T07:17:17.192Z,22.93
2022-08-18T07:19:43.988Z,23.03
2022-08-18T07:22:21.578Z,23.04
2022-08-18T07:25:05.850Z,23.20
2022-08-18T07:27:48.227Z,23.33
2022-08-18T07:30:27.655Z,23.46
2022-08-18T07:33:01.178Z,23.41
2022-08-18T07:35:33.943Z,23.41
2022-08-18T07:38:39.013Z,23.34
2022-08-18T07:41:08.187Z,23.35
2022-08-18T07:43:41.873Z,23.35
2022-08-18T07:46:20.191Z,23.40
2022-08-18T07:48:46.987Z,23.50
2022-08-18T07:51:20.257Z,23.61
2022-08-18T07:53:54.524Z,23.71
2022-08-18T07:56:39.215Z,23.80
2022-08-18T07:59:19.067Z,23.81
2022-08-18T08:01:56.410Z,23.92
2022-08-18T08:04:38.457Z,23.99
2022-08-18T08:07:25.569Z,24.15
2022-08-18T08:10:02.237Z,23.94
2022-08-18T08:12:51.176Z,24.05
2022-08-18T08:15:27.440Z,24.08
2022-08-18T08:18:07.161Z,24.13
2022-08-18T08:20:46.224Z,24.17
2022-08-18T08:23:18.757Z,24.11
2022-08-18T08:25:55.182Z,24.09
2022-08-18T08:28:28.042Z,24.19
2022-08-18T08:31:37.410Z,24.29
2022-08-18T08:34:24.611Z,24.29
2022-08-18T08:37:00.171Z,24.26
2022-08-18T08:39:34.169Z,24.23
2022-08-18T08:42:30.799Z,24.35
2022-08-18T08:45:01.116Z,24.37
2022-08-18T08:47:47.178Z,24.39
2022-08-18T08:50:19.572Z,24.54
2022-08-18T08:52:57.593Z,24.53
2022-08-18T08:55:25.639Z,24.45
2022-08-18T08:58:03.171Z,24.52
2022-08-18T09:00:30.297Z,24.59
2022-08-18T09:03:08.200Z,24.64
2022-08-18T09:05:40.126Z,24.72
2022-08-18T09:08:20.195Z,24.80
2022-08-18T09:11:30.176Z,24.90
2022-08-18T09:14:03.287Z,24.96
2022-08-18T09:16:59.332Z,24.99
2022-08-18T09:19:26.234Z,25.08
2022-08-18T09:22:23.204Z,25.10
2022-08-18T09:25:01.199Z,25.18
2022-08-18T09:28:07.375Z,25.32
2022-08-18T09:30:43.689Z,25.41
2022-08-18T09:33:26.188Z,25.46
2022-08-18T09:36:11.820Z,25.53
2022-08-18T09:39:12.168Z,25.60
2022-08-18T09:41:52.281Z,25.70
2022-08-18T09:44:49.301Z,25.82
2022-08-18T09:47:22.307Z,25.87
2022-08-18T09:49:57.241Z,25.93
2022-08-18T09:52:26.318Z,26.03
2022-08-18T09:55:05.186Z,26.12
2022-08-18T10:00:36.389Z,26.42
2022-08-18T10:03:11.884Z,26.47
2022-08-18T10:05:45.312Z,26.55
2022-08-18T10:08:21.196Z,26.66
2022-08-18T10:11:20.424Z,26.81
2022-08-18T10:14:12.327Z,26.89
2022-08-18T10:17:24.677Z,26.90
2022-08-18T10:20:01.176Z,27.03
2022-08-18T10:22:45.178Z,27.04
2022-08-18T10:25:22.835Z,27.16
2022-08-18T10:28:02.169Z,27.19
2022-08-18T10:30:30.443Z,27.24
2022-08-18T10:33:17.967Z,27.29
2022-08-18T10:36:03.317Z,27.35
2022-08-18T10:38:49.169Z,27.38
2022-08-18T10:41:22.614Z,27.49
2022-08-18T10:43:57.282Z,27.65
2022-08-18T10:49:29.567Z,27.81
2022-08-18T10:52:16.304Z,27.87
2022-08-18T10:55:01.164Z,27.88
2022-08-18T10:57:43.201Z,27.83
2022-08-18T11:00:26.215Z,27.96
2022-08-18T11:03:50.481Z,28.09
2022-08-18T11:06:06.910Z,28.15
2022-08-18T11:08:55.130Z,28.32
2022-08-18T11:11:39.433Z,28.42
2022-08-18T11:14:29.187Z,28.48
2022-08-18T11:17:21.207Z,28.53
2022-08-18T11:19:50.650Z,28.55
2022-08-18T11:22:35.683Z,28.58
2022-08-18T11:25:03.827Z,28.63
2022-08-18T11:27:44.153Z,28.65
2022-08-18T11:30:12.279Z,28.75
2022-08-18T11:32:52.124Z,28.83
2022-08-18T11:35:28.209Z,28.92
2022-08-18T11:37:58.273Z,28.98
2022-08-18T11:46:31.819Z,28.94
2022-08-18T11:49:07.329Z,28.85
2022-08-18T11:51:43.175Z,28.92
2022-08-18T11:54:12.815Z,28.92
2022-08-18T11:56:46.170Z,29.05
2022-08-18T12:02:18.636Z,29.08
2022-08-18T12:04:56.899Z,29.13
2022-08-18T12:07:32.359Z,29.33
2022-08-18T12:10:26.413Z,29.33
2022-08-18T12:13:02.902Z,29.19
2022-08-18T12:15:45.002Z,29.26
2022-08-18T12:18:28.702Z,29.39
2022-08-18T12:21:06.184Z,29.43
2022-08-18T12:23:44.414Z,29.59
2022-08-18T12:26:43.285Z,29.71
2022-08-18T12:29:21.181Z,29.79
2022-08-18T12:31:59.174Z,29.70
2022-08-18T12:34:27.331Z,29.59
2022-08-18T12:37:02.167Z,29.52
2022-08-18T12:39:37.920Z,29.49
2022-08-18T12:42:11.175Z,29.46
2022-08-18T12:44:38.387Z,29.55
2022-08-18T12:47:34.151Z,29.62
2022-08-18T12:50:14.177Z,29.67
2022-08-18T12:52:47.403Z,29.85
2022-08-18T12:55:21.803Z,30.04
2022-08-18T12:57:56.178Z,30.25
2022-08-18T13:00:29.526Z,30.33
2022-08-18T13:02:57.334Z,30.38
2022-08-18T13:05:31.166Z,30.63
2022-08-18T13:07:58.681Z,30.75
2022-08-18T13:10:43.245Z,30.84
2022-08-18T13:13:30.122Z,30.81
2022-08-18T13:15:58.519Z,30.82
2022-08-18T13:18:34.164Z,30.90
2022-08-18T13:21:03.582Z,30.76
2022-08-18T13:23:37.208Z,30.84
2022-08-18T13:26:05.193Z,30.88
2022-08-18T13:28:56.562Z,30.96
2022-08-18T13:31:25.412Z,31.12
2022-08-18T13:33:59.949Z,31.09
2022-08-18T13:36:46.103Z,30.90
2022-08-18T13:39:22.153Z,30.80
2022-08-18T13:41:51.574Z,30.82
2022-08-18T13:44:27.201Z,30.71
2022-08-18T13:46:56.052Z,30.69
2022-08-18T13:49:31.181Z,30.67
2022-08-18T13:52:00.973Z,30.52
2022-08-18T13:54:40.181Z,30.41
2022-08-18T13:57:07.217Z,30.24
2022-08-18T13:59:46.535Z,30.10
2022-08-18T14:02:13.575Z,30.09
2022-08-18T14:04:47.149Z,30.02
2022-08-18T14:07:18.242Z,29.86
2022-08-18T14:09:52.248Z,29.64
2022-08-18T14:12:33.111Z,29.63
2022-08-18T14:15:06.316Z,29.55
2022-08-18T14:17:33.824Z,29.52
2022-08-18T14:20:27.730Z,29.44
2022-08-18T14:23:13.986Z,29.38
2022-08-18T14:26:13.221Z,29.30
2022-08-18T14:28:47.716Z,29.10
2022-08-18T14:31:23.118Z,29.06
2022-08-18T14:33:52.529Z,29.02
2022-08-18T14:36:29.941Z,28.97
2022-08-18T14:39:04.229Z,28.98
2022-08-18T14:41:31.586Z,28.91
2022-08-18T14:44:12.966Z,28.76
2022-08-18T14:46:52.095Z,28.74
2022-08-18T14:49:29.132Z,28.60
2022-08-18T14:52:04.148Z,28.48
2022-08-18T14:54:37.836Z,28.25
2022-08-18T14:59:46.724Z,27.85
2022-08-18T15:02:20.155Z,27.59
2022-08-18T15:04:52.916Z,27.22
2022-08-18T15:07:32.781Z,26.88
2022-08-18T15:10:15.694Z,26.72
2022-08-18T15:12:56.297Z,26.50
2022-08-18T15:15:42.281Z,26.36
2022-08-18T15:18:24.245Z,26.07
2022-08-18T15:21:19.671Z,25.66
2022-08-18T15:24:27.139Z,25.70
2022-08-18T15:27:06.077Z,25.74
2022-08-18T15:29:36.896Z,25.77
2022-08-18T15:32:15.171Z,25.76
2022-08-18T15:34:47.023Z,25.71
2022-08-18T15:37:24.602Z,25.64
2022-08-18T15:40:05.582Z,25.53
2022-08-18T15:42:33.189Z,25.40
2022-08-18T15:45:11.493Z,25.39
2022-08-18T15:47:47.166Z,25.37
2022-08-18T15:50:25.634Z,25.28
2022-08-18T15:53:01.204Z,25.29
2022-08-18T15:55:35.715Z,25.40
2022-08-18T15:58:11.234Z,25.48
2022-08-18T16:00:46.223Z,25.62
2022-08-18T16:03:21.139Z,25.74
2022-08-18T16:05:53.180Z,25.81
2022-08-18T16:08:28.137Z,26.03
2022-08-18T16:11:01.146Z,26.23
2022-08-18T16:13:41.124Z,26.42
2022-08-18T16:16:29.192Z,26.50
2022-08-18T16:19:09.194Z,26.65
2022-08-18T16:21:39.875Z,26.65
2022-08-18T16:24:16.657Z,26.69
2022-08-18T16:26:53.219Z,26.66
2022-08-18T16:29:20.025Z,26.52
2022-08-18T16:31:54.141Z,26.42
2022-08-18T16:34:20.710Z,26.35
2022-08-18T16:36:55.220Z,26.17
2022-08-18T16:39:21.862Z,26.18
2022-08-18T16:41:55.542Z,26.09
2022-08-18T16:44:22.209Z,26.08
2022-08-18T16:46:58.142Z,26.11
2022-08-18T16:49:24.869Z,26.20
2022-08-18T16:51:58.150Z,26.15
2022-08-18T16:54:31.192Z,26.15
2022-08-18T16:56:58.511Z,26.08
2022-08-18T16:59:50.150Z,26.00
2022-08-18T17:02:35.425Z,25.95
2022-08-18T17:05:09.196Z,25.81
2022-08-18T17:07:36.232Z,25.61
2022-08-18T17:10:11.135Z,25.33
2022-08-18T17:12:58.167Z,25.11
2022-08-18T17:15:31.203Z,25.05
2022-08-18T17:17:57.877Z,24.92
2022-08-18T17:20:32.148Z,24.84
2022-08-18T17:22:59.861Z,24.79
2022-08-18T17:25:34.160Z,24.75
2022-08-18T17:28:02.158Z,24.71
2022-08-18T17:30:43.243Z,24.62
2022-08-18T17:33:19.218Z,24.50
2022-08-18T17:35:47.551Z,24.38
2022-08-18T17:38:27.147Z,24.41
2022-08-18T17:40:55.346Z,24.38
2022-08-18T17:43:30.211Z,24.34
2022-08-18T17:46:01.237Z,24.28
2022-08-18T17:48:38.131Z,24.10
2022-08-18T17:51:26.865Z,24.00
2022-08-18T17:54:00.171Z,23.84
2022-08-18T17:56:35.506Z,23.78
2022-08-18T17:59:46.356Z,23.61
2022-08-18T18:02:28.518Z,23.43
2022-08-18T18:05:04.129Z,23.39
2022-08-18T18:07:32.889Z,23.34
2022-08-18T18:10:11.140Z,23.26
2022-08-18T18:12:59.176Z,23.21
2022-08-18T18:15:37.136Z,23.21
2022-08-18T18:18:18.664Z,23.10
2022-08-18T18:20:52.152Z,23.02
2022-08-18T18:23:24.028Z,23.03
2022-08-18T18:25:57.130Z,22.97
2022-08-18T18:28:34.513Z,22.90
2022-08-18T18:31:24.145Z,22.78
2022-08-18T18:34:02.192Z,22.71
2022-08-18T18:36:43.129Z,22.76
2022-08-18T18:39:21.144Z,22.74
2022-08-18T18:41:50.818Z,22.67
2022-08-18T18:44:34.174Z,22.67
2022-08-18T18:47:10.972Z,22.74
2022-08-18T18:50:00.212Z,22.64
2022-08-18T18:52:53.325Z,22.62
2022-08-18T18:55:23.780Z,22.60
2022-08-18T18:58:09.155Z,22.58
2022-08-18T19:01:04.439Z,22.42
2022-08-18T19:03:42.128Z,22.46
2022-08-18T19:06:35.213Z,22.49
2022-08-18T19:09:13.149Z,22.45
2022-08-18T19:11:48.046Z,22.37
2022-08-18T19:14:33.131Z,22.36
2022-08-18T19:17:09.142Z,22.32
2022-08-18T19:19:41.188Z,22.29
2022-08-18T19:22:18.902Z,22.36
2022-08-18T19:24:59.572Z,22.28
2022-08-18T19:27:49.843Z,22.22
2022-08-18T19:30:24.128Z,22.28
2022-08-18T19:32:55.629Z,22.30
2022-08-18T19:35:35.605Z,22.36
2022-08-18T19:38:07.570Z,22.41
2022-08-18T19:40:51.161Z,22.43
2022-08-18T19:43:23.767Z,22.38
2022-08-18T19:46:03.576Z,22.38
2022-08-18T19:49:02.303Z,22.37
2022-08-18T19:51:33.461Z,22.37
2022-08-18T19:54:11.202Z,22.40
2022-08-18T19:56:43.278Z,22.38
2022-08-18T19:59:23.152Z,22.29
2022-08-18T20:01:55.354Z,22.28
2022-08-18T20:04:44.153Z,22.22
2022-08-18T20:07:19.895Z,22.21
2022-08-18T20:10:15.128Z,22.13
2022-08-18T20:12:48.386Z,22.03
2022-08-18T20:15:30.129Z,21.95
2022-08-18T20:18:06.392Z,22.03
2022-08-18T20:20:47.162Z,21.99
2022-08-18T20:23:32.753Z,21.98
2022-08-18T20:26:06.124Z,21.90
2022-08-18T20:28:34.858Z,21.96
2022-08-18T20:31:19.136Z,22.02
2022-08-18T20:34:17.215Z,22.01
2022-08-18T20:36:45.102Z,21.94
2022-08-18T20:39:39.196Z,21.94
2022-08-18T20:42:07.448Z,21.96
2022-08-18T20:44:44.149Z,21.99
2022-08-18T20:47:19.733Z,22.05
2022-08-18T20:50:02.185Z,22.02
2022-08-18T20:52:39.689Z,22.05
2022-08-18T20:55:26.119Z,22.00
2022-08-18T20:57:55.613Z,22.02
2022-08-18T21:00:29.102Z,21.99
2022-08-18T21:02:56.914Z,21.97
2022-08-18T21:05:35.130Z,21.92
2022-08-18T21:08:04.838Z,21.94
2022-08-18T21:10:39.125Z,21.92
2022-08-18T21:13:12.252Z,21.93
2022-08-18T21:15:52.108Z,22.01
2022-08-18T21:18:20.002Z,22.01
2022-08-18T21:20:55.105Z,21.93
2022-08-18T21:23:30.303Z,21.88
2022-08-18T21:26:12.103Z,21.87
2022-08-18T21:28:40.139Z,21.87
2022-08-18T21:31:42.786Z,21.88
2022-08-18T21:34:05.964Z,22.05
2022-08-18T21:36:39.122Z,22.00
2022-08-18T21:39:22.113Z,21.90
2022-08-18T21:41:57.104Z,21.81
2022-08-18T21:44:41.792Z,21.81
2022-08-18T21:47:21.131Z,21.89
2022-08-18T21:50:24.138Z,21.74
2022-08-18T21:52:53.799Z,21.57
2022-08-18T21:55:27.120Z,21.56
2022-08-18T21:58:05.700Z,21.53
2022-08-18T22:00:39.134Z,21.47
2022-08-18T22:03:12.086Z,21.65
2022-08-18T22:05:57.784Z,21.66
2022-08-18T22:08:34.140Z,21.50
2022-08-18T22:12:01.380Z,21.47
2022-08-18T22:14:30.392Z,21.44
2022-08-18T22:17:27.133Z,21.41
2022-08-18T22:20:01.152Z,21.34
2022-08-18T22:22:55.194Z,21.32
2022-08-18T22:25:29.109Z,21.30
2022-08-18T22:27:59.132Z,21.29
2022-08-18T22:30:32.105Z,21.25
2022-08-18T22:32:59.764Z,21.10
2022-08-18T22:35:34.110Z,20.96
2022-08-18T22:38:00.923Z,20.93
2022-08-18T22:40:34.099Z,20.82
2022-08-18T22:43:00.729Z,20.83
2022-08-18T22:45:28.485Z,20.83
2022-08-18T22:48:02.141Z,20.89
2022-08-18T22:50:35.092Z,20.93
2022-08-18T22:53:09.101Z,20.97
2022-08-18T22:55:35.699Z,20.97
2022-08-18T22:58:09.094Z,20.98
2022-08-18T23:00:37.515Z,20.99
2022-08-18T23:03:13.122Z,21.01
2022-08-18T23:05:39.700Z,21.02
2022-08-18T23:08:13.319Z,21.02
2022-08-18T23:10:46.097Z,21.03
2022-08-18T23:13:33.212Z,21.01
2022-08-18T23:16:30.515Z,21.11
2022-08-18T23:18:53.096Z,21.05
2022-08-18T23:21:35.485Z,21.06
2022-08-18T23:24:12.112Z,21.04
2022-08-18T23:26:45.115Z,21.04
2022-08-18T23:29:12.517Z,21.07
2022-08-18T23:31:46.265Z,21.09
2022-08-18T23:34:15.920Z,21.10
2022-08-18T23:36:49.208Z,21.10
2022-08-18T23:39:15.793Z,21.05
2022-08-18T23:41:49.088Z,21.02
2022-08-18T23:44:16.147Z,20.97
2022-08-18T23:46:50.102Z,20.88
2022-08-18T23:49:16.751Z,20.93
2022-08-18T23:51:51.076Z,20.99
2022-08-18T23:54:19.070Z,21.22
2022-08-18T23:56:52.083Z,21.11
2022-08-18T23:59:19.972Z,21.15
